createdAt,value
2022-08-02T00:03:24.653Z,21.33
2022-08-02T00:08:26.491Z,21.27
2022-08-02T00:13:28.205Z,21.37
2022-08-02T00:18:29.764Z,21.39
2022-08-02T00:23:31.382Z,21.22
2022-08-02T00:28:33.030Z,21.25
2022-08-02T00:34:09.138Z,21.00
2022-08-02T00:38:57.078Z,20.93
2022-08-02T00:43:58.673Z,20.94
2022-08-02T00:49:00.301Z,20.94
2022-08-02T00:54:03.350Z,21.06
2022-08-02T00:59:05.165Z,20.90
2022-08-02T01:04:14.039Z,20.82
2022-08-02T01:09:17.071Z,20.66
2022-08-02T01:14:18.927Z,20.60
2022-08-02T01:19:38.798Z,20.37
2022-08-02T01:25:02.286Z,20.49
2022-08-02T01:30:04.439Z,20.44
2022-08-02T01:35:17.411Z,20.39
2022-08-02T01:40:32.514Z,20.14
2022-08-02T01:45:35.745Z,20.47
2022-08-02T01:50:38.211Z,20.21
2022-08-02T01:55:57.934Z,19.97
2022-08-02T02:01:01.191Z,20.13
2022-08-02T02:06:03.698Z,20.13
2022-08-02T02:12:11.834Z,20.10
2022-08-02T02:16:28.701Z,20.22
2022-08-02T02:21:30.696Z,20.22
2022-08-02T02:26:33.571Z,20.17
2022-08-02T02:31:39.385Z,19.97
2022-08-02T02:36:44.830Z,19.42
2022-08-02T02:41:49.095Z,19.80
2022-08-02T02:46:53.707Z,19.76
2022-08-02T02:51:55.943Z,19.80
2022-08-02T02:56:58.534Z,19.74
2022-08-02T03:02:00.307Z,19.46
2022-08-02T03:07:02.134Z,19.84
2022-08-02T03:12:04.110Z,19.78
2022-08-02T03:17:05.683Z,19.84
2022-08-02T03:22:07.422Z,19.44
2022-08-02T03:27:09.092Z,19.64
2022-08-02T03:32:11.027Z,19.55
2022-08-02T03:37:12.768Z,19.88
2022-08-02T03:42:15.372Z,19.88
2022-08-02T03:47:18.579Z,19.77
2022-08-02T03:52:20.523Z,19.73
2022-08-02T03:57:22.184Z,19.67
2022-08-02T04:02:23.766Z,19.79
2022-08-02T04:08:02.753Z,19.86
2022-08-02T04:12:46.922Z,19.85
2022-08-02T04:17:52.032Z,19.65
2022-08-02T04:23:08.037Z,19.75
2022-08-02T04:28:16.988Z,19.96
2022-08-02T04:33:20.065Z,20.16
2022-08-02T04:38:21.716Z,20.03
2022-08-02T04:43:23.816Z,20.09
2022-08-02T04:48:25.418Z,19.92
2022-08-02T04:53:27.023Z,19.44
2022-08-02T04:58:44.056Z,19.98
2022-08-02T05:03:46.857Z,20.08
2022-08-02T05:08:52.811Z,20.07
2022-08-02T05:13:57.524Z,20.84
2022-08-02T05:19:00.988Z,20.89
2022-08-02T05:24:02.821Z,21.23
2022-08-02T05:29:05.032Z,21.10
2022-08-02T05:34:11.371Z,21.33
2022-08-02T05:39:18.860Z,21.76
2022-08-02T05:44:20.834Z,21.55
2022-08-02T05:49:22.531Z,21.55
2022-08-02T05:55:09.875Z,21.60
2022-08-02T06:00:13.814Z,21.01
2022-08-02T06:05:22.703Z,21.26
2022-08-02T06:10:27.409Z,21.47
2022-08-02T06:15:29.366Z,21.78
2022-08-02T06:20:37.737Z,22.04
2022-08-02T06:25:51.212Z,22.22
2022-08-02T06:30:53.869Z,22.37
2022-08-02T06:36:04.459Z,22.48
2022-08-02T06:41:14.052Z,22.89
2022-08-02T06:46:34.500Z,22.98
2022-08-02T06:51:37.680Z,23.08
2022-08-02T06:56:39.306Z,22.72
2022-08-02T07:01:41.406Z,22.94
2022-08-02T07:06:42.991Z,22.97
2022-08-02T07:11:44.536Z,23.13
2022-08-02T07:16:46.175Z,23.20
2022-08-02T07:21:56.701Z,23.36
2022-08-02T07:27:11.106Z,23.44
2022-08-02T07:32:13.537Z,23.54
2022-08-02T07:37:36.040Z,23.58
2022-08-02T07:42:37.331Z,23.51
2022-08-02T07:47:43.566Z,23.51
2022-08-02T07:52:46.119Z,23.49
2022-08-02T07:57:47.756Z,23.89
2022-08-02T08:02:49.550Z,23.89
2022-08-02T08:07:52.168Z,23.94
2022-08-02T08:12:55.198Z,23.85
2022-08-02T08:17:56.824Z,23.90
2022-08-02T08:22:58.401Z,24.17
2022-08-02T08:28:00.037Z,24.19
2022-08-02T08:33:02.001Z,24.28
2022-08-02T08:38:07.514Z,24.40
2022-08-02T08:43:09.599Z,24.50
2022-08-02T08:48:30.429Z,24.49
2022-08-02T08:53:42.477Z,24.56
2022-08-02T08:58:45.558Z,24.53
2022-08-02T09:03:47.211Z,24.66
2022-08-02T09:08:48.893Z,24.92
2022-08-02T09:13:52.022Z,25.10
2022-08-02T09:18:53.586Z,24.94
2022-08-02T09:23:57.316Z,24.82
2022-08-02T09:29:02.570Z,24.74
2022-08-02T09:34:04.433Z,24.87
2022-08-02T09:39:07.818Z,24.87
2022-08-02T09:44:15.719Z,24.85
2022-08-02T09:49:19.333Z,24.88
2022-08-02T09:54:24.683Z,24.95
2022-08-02T09:59:27.764Z,24.92
2022-08-02T10:04:31.978Z,25.05
2022-08-02T10:09:39.031Z,25.14
2022-08-02T10:14:45.227Z,25.21
2022-08-02T10:20:02.373Z,25.03
2022-08-02T10:25:06.747Z,25.30
2022-08-02T10:30:10.088Z,25.30
2022-08-02T10:35:25.220Z,25.48
2022-08-02T10:40:46.135Z,25.39
2022-08-02T10:45:50.721Z,25.40
2022-08-02T10:50:53.045Z,25.17
2022-08-02T10:55:56.104Z,25.30
2022-08-02T11:00:59.383Z,25.39
2022-08-02T11:06:03.037Z,25.55
2022-08-02T11:11:10.504Z,25.52
2022-08-02T11:16:12.294Z,25.69
2022-08-02T11:21:30.709Z,25.83
2022-08-02T11:26:32.236Z,26.09
2022-08-02T11:31:42.229Z,26.15
2022-08-02T11:36:48.191Z,26.20
2022-08-02T11:41:53.952Z,26.19
2022-08-02T11:47:02.599Z,26.24
2022-08-02T11:52:06.465Z,26.18
2022-08-02T11:57:14.393Z,26.14
2022-08-02T12:02:22.528Z,26.19
2022-08-02T12:07:34.510Z,26.14
2022-08-02T12:12:54.563Z,26.13
2022-08-02T12:18:14.351Z,26.25
2022-08-02T12:23:15.921Z,26.18
2022-08-02T12:28:22.363Z,26.20
2022-08-02T12:33:28.492Z,26.21
2022-08-02T12:38:30.235Z,26.18
2022-08-02T12:43:31.876Z,26.18
2022-08-02T12:48:42.709Z,26.23
2022-08-02T12:53:58.971Z,26.32
2022-08-02T12:59:01.773Z,26.44
2022-08-02T13:04:07.935Z,26.45
2022-08-02T13:09:17.089Z,26.66
2022-08-02T13:14:19.007Z,26.64
2022-08-02T13:19:20.639Z,26.41
2022-08-02T13:24:38.333Z,26.42
2022-08-02T13:29:43.189Z,26.54
2022-08-02T13:34:44.941Z,26.60
2022-08-02T13:40:00.512Z,26.35
2022-08-02T13:45:12.545Z,26.61
2022-08-02T13:50:16.448Z,26.47
2022-08-02T13:55:18.106Z,26.53
2022-08-02T14:00:19.649Z,26.68
2022-08-02T14:05:47.867Z,26.52
2022-08-02T14:10:51.221Z,26.67
2022-08-02T14:15:52.895Z,26.75
2022-08-02T14:20:54.515Z,26.92
2022-08-02T14:25:57.306Z,26.96
2022-08-02T14:30:58.832Z,26.82
2022-08-02T14:36:00.496Z,26.91
2022-08-02T14:41:02.120Z,27.10
2022-08-02T14:46:03.676Z,27.00
2022-08-02T14:51:05.312Z,27.04
2022-08-02T14:56:06.895Z,27.06
2022-08-02T15:01:08.527Z,27.12
2022-08-02T15:06:10.169Z,27.15
2022-08-02T15:11:12.053Z,27.04
2022-08-02T15:16:13.666Z,27.18
2022-08-02T15:21:40.679Z,27.32
2022-08-02T15:26:36.873Z,27.20
2022-08-02T15:31:41.779Z,27.21
2022-08-02T15:36:43.476Z,27.29
2022-08-02T15:41:45.027Z,27.38
2022-08-02T15:46:46.710Z,27.28
2022-08-02T15:51:48.261Z,27.31
2022-08-02T15:56:50.049Z,27.19
2022-08-02T16:01:51.618Z,27.24
2022-08-02T16:06:53.681Z,27.33
2022-08-02T16:11:55.537Z,27.32
2022-08-02T16:16:57.095Z,27.32
2022-08-02T16:21:58.635Z,27.30
2022-08-02T16:27:00.186Z,27.24
2022-08-02T16:32:01.720Z,27.20
2022-08-02T16:37:03.421Z,27.21
2022-08-02T16:42:04.985Z,27.25
2022-08-02T16:47:06.808Z,27.25
2022-08-02T16:52:09.578Z,27.16
2022-08-02T16:57:11.363Z,27.32
2022-08-02T17:02:19.604Z,27.26
2022-08-02T17:08:07.566Z,27.25
2022-08-02T17:12:44.808Z,27.24
2022-08-02T17:17:52.920Z,27.15
2022-08-02T17:22:54.457Z,27.08
2022-08-02T17:27:56.205Z,27.17
2022-08-02T17:32:59.427Z,27.13
2022-08-02T17:38:01.142Z,27.08
2022-08-02T17:43:02.793Z,27.05
2022-08-02T17:48:16.396Z,26.97
2022-08-02T17:53:18.953Z,26.89
2022-08-02T17:58:20.501Z,26.85
2022-08-02T18:03:22.925Z,26.77
2022-08-02T18:08:24.588Z,26.75
2022-08-02T18:13:26.197Z,26.75
2022-08-02T18:18:34.316Z,26.71
2022-08-02T18:23:38.100Z,26.57
2022-08-02T18:28:45.929Z,26.56
2022-08-02T18:33:54.465Z,26.48
2022-08-02T18:38:58.170Z,26.35
2022-08-02T18:44:01.308Z,26.32
2022-08-02T18:49:06.774Z,26.29
2022-08-02T18:54:16.850Z,26.13
2022-08-02T18:59:36.634Z,26.08
2022-08-02T19:04:43.579Z,26.03
2022-08-02T19:09:49.378Z,25.91
2022-08-02T19:14:52.156Z,25.79
2022-08-02T19:19:56.061Z,25.71
2022-08-02T19:25:00.987Z,25.62
2022-08-02T19:30:07.789Z,25.53
2022-08-02T19:35:19.985Z,25.47
2022-08-02T19:40:31.822Z,25.39
2022-08-02T19:45:49.593Z,25.34
2022-08-02T19:50:56.061Z,25.27
2022-08-02T19:56:02.782Z,25.24
2022-08-02T20:01:05.546Z,25.15
2022-08-02T20:06:07.137Z,25.11
2022-08-02T20:11:14.916Z,25.04
2022-08-02T20:16:27.996Z,25.01
2022-08-02T20:21:36.266Z,24.96
2022-08-02T20:26:47.254Z,24.90
2022-08-02T20:31:50.513Z,24.85
2022-08-02T20:36:53.920Z,24.73
2022-08-02T20:41:58.672Z,24.71
2022-08-02T20:47:01.321Z,24.83
2022-08-02T20:52:03.044Z,24.81
2022-08-02T20:57:48.799Z,24.74
2022-08-02T21:02:46.363Z,24.68
2022-08-02T21:07:53.398Z,24.64
2022-08-02T21:12:56.527Z,24.63
2022-08-02T21:18:01.421Z,24.51
2022-08-02T21:23:08.899Z,24.50
2022-08-02T21:28:21.810Z,24.39
2022-08-02T21:33:24.682Z,24.34
2022-08-02T21:38:36.570Z,24.38
2022-08-02T21:43:38.642Z,24.38
2022-08-02T21:48:40.814Z,24.36
2022-08-02T21:53:43.117Z,24.29
2022-08-02T21:58:44.767Z,24.22
2022-08-02T22:03:55.736Z,24.07
2022-08-02T22:08:57.397Z,24.08
2022-08-02T22:14:02.074Z,24.07
2022-08-02T22:19:03.998Z,24.04
2022-08-02T22:24:12.843Z,23.91
2022-08-02T22:29:21.018Z,23.90
2022-08-02T22:34:26.801Z,23.81
2022-08-02T22:40:06.097Z,23.82
2022-08-02T22:45:06.171Z,23.72
2022-08-02T22:50:11.802Z,23.69
2022-08-02T22:55:14.197Z,23.69
2022-08-02T23:00:16.148Z,23.66
2022-08-02T23:05:17.809Z,23.59
2022-08-02T23:10:19.404Z,23.58
2022-08-02T23:15:21.006Z,23.56
2022-08-02T23:20:22.683Z,23.39
2022-08-02T23:25:24.218Z,23.36
2022-08-02T23:30:26.024Z,23.21
2022-08-02T23:35:27.689Z,23.18
2022-08-02T23:40:39.212Z,23.10
2022-08-02T23:45:44.406Z,23.08
2022-08-02T23:50:46.019Z,23.02
2022-08-02T23:55:47.620Z,23.03
